sensor_id;sensor_type;location;lat;lon;timestamp;P1;durP1;ratioP1;P2;durP2;ratioP2
75423;SDS011;64005;55.160;36.002;2023-02-01T00:00:41;13.20;;;4.30;;
75423;SDS011;64005;55.160;36.002;2023-02-01T00:03:08;13.10;;;4.63;;
75423;SDS011;64005;55.160;36.002;2023-02-01T00:05:38;17.25;;;4.47;;
75423;SDS011;64005;55.160;36.002;2023-02-01T00:08:05;9.50;;;4.30;;
75423;SDS011;64005;55.160;36.002;2023-02-01T00:10:34;13.18;;;4.45;;
75423;SDS011;64005;55.160;36.002;2023-02-01T00:13:02;12.35;;;4.43;;
75423;SDS011;64005;55.160;36.002;2023-02-01T00:15:29;13.77;;;4.97;;
75423;SDS011;64005;55.160;36.002;2023-02-01T00:17:58;10.48;;;4.07;;
75423;SDS011;64005;55.160;36.002;2023-02-01T00:20:26;11.70;;;4.70;;
75423;SDS011;64005;55.160;36.002;2023-02-01T00:22:53;12.90;;;4.78;;
75423;SDS011;64005;55.160;36.002;2023-02-01T00:25:21;13.38;;;4.13;;
75423;SDS011;64005;55.160;36.002;2023-02-01T00:27:50;9.52;;;3.63;;
75423;SDS011;64005;55.160;36.002;2023-02-01T00:30:17;13.27;;;4.70;;
75423;SDS011;64005;55.160;36.002;2023-02-01T00:32:45;11.10;;;4.32;;
75423;SDS011;64005;55.160;36.002;2023-02-01T00:35:13;15.23;;;5.55;;
75423;SDS011;64005;55.160;36.002;2023-02-01T00:37:40;12.50;;;4.50;;
75423;SDS011;64005;55.160;36.002;2023-02-01T00:40:08;12.80;;;4.35;;
75423;SDS011;64005;55.160;36.002;2023-02-01T00:42:38;9.38;;;4.00;;
75423;SDS011;64005;55.160;36.002;2023-02-01T00:45:08;11.25;;;5.00;;
75423;SDS011;64005;55.160;36.002;2023-02-01T00:47:36;10.68;;;3.78;;
75423;SDS011;64005;55.160;36.002;2023-02-01T00:50:04;12.48;;;4.22;;
75423;SDS011;64005;55.160;36.002;2023-02-01T00:52:32;12.80;;;4.75;;
75423;SDS011;64005;55.160;36.002;2023-02-01T00:54:59;18.73;;;6.20;;
75423;SDS011;64005;55.160;36.002;2023-02-01T00:57:26;14.23;;;5.30;;
75423;SDS011;64005;55.160;36.002;2023-02-01T00:59:54;13.80;;;4.65;;
75423;SDS011;64005;55.160;36.002;2023-02-01T01:02:23;12.70;;;4.50;;
75423;SDS011;64005;55.160;36.002;2023-02-01T01:04:53;14.10;;;5.13;;
75423;SDS011;64005;55.160;36.002;2023-02-01T01:07:21;13.48;;;4.95;;
75423;SDS011;64005;55.160;36.002;2023-02-01T01:09:49;15.07;;;5.70;;
75423;SDS011;64005;55.160;36.002;2023-02-01T01:12:16;18.38;;;5.40;;
75423;SDS011;64005;55.160;36.002;2023-02-01T01:14:45;15.23;;;3.95;;
75423;SDS011;64005;55.160;36.002;2023-02-01T01:17:12;15.32;;;5.60;;
75423;SDS011;64005;55.160;36.002;2023-02-01T01:19:42;12.25;;;4.60;;
75423;SDS011;64005;55.160;36.002;2023-02-01T01:22:09;13.35;;;4.85;;
75423;SDS011;64005;55.160;36.002;2023-02-01T01:24:37;17.17;;;4.78;;
75423;SDS011;64005;55.160;36.002;2023-02-01T01:27:04;11.85;;;4.45;;
75423;SDS011;64005;55.160;36.002;2023-02-01T01:29:32;11.27;;;4.32;;
75423;SDS011;64005;55.160;36.002;2023-02-01T01:31:59;13.02;;;4.25;;
75423;SDS011;64005;55.160;36.002;2023-02-01T01:34:27;10.93;;;4.40;;
75423;SDS011;64005;55.160;36.002;2023-02-01T01:36:56;16.05;;;4.80;;
75423;SDS011;64005;55.160;36.002;2023-02-01T01:39:23;12.13;;;4.03;;
75423;SDS011;64005;55.160;36.002;2023-02-01T01:41:51;16.52;;;5.68;;
75423;SDS011;64005;55.160;36.002;2023-02-01T01:47:24;10.70;;;4.43;;
75423;SDS011;64005;55.160;36.002;2023-02-01T01:49:53;11.82;;;4.68;;
75423;SDS011;64005;55.160;36.002;2023-02-01T01:52:23;12.15;;;4.65;;
75423;SDS011;64005;55.160;36.002;2023-02-01T01:54:51;12.15;;;4.35;;
75423;SDS011;64005;55.160;36.002;2023-02-01T01:57:28;13.20;;;4.93;;
75423;SDS011;64005;55.160;36.002;2023-02-01T02:00:01;12.60;;;4.22;;
75423;SDS011;64005;55.160;36.002;2023-02-01T02:02:32;14.77;;;4.80;;
75423;SDS011;64005;55.160;36.002;2023-02-01T02:05:00;15.45;;;5.15;;
75423;SDS011;64005;55.160;36.002;2023-02-01T02:07:31;13.23;;;5.05;;
75423;SDS011;64005;55.160;36.002;2023-02-01T02:10:03;8.23;;;4.20;;
75423;SDS011;64005;55.160;36.002;2023-02-01T02:12:37;13.02;;;4.88;;
75423;SDS011;64005;55.160;36.002;2023-02-01T02:15:06;12.73;;;5.10;;
75423;SDS011;64005;55.160;36.002;2023-02-01T02:17:35;15.73;;;4.72;;
75423;SDS011;64005;55.160;36.002;2023-02-01T02:20:19;15.02;;;4.45;;
75423;SDS011;64005;55.160;36.002;2023-02-01T02:26:35;14.13;;;5.32;;
75423;SDS011;64005;55.160;36.002;2023-02-01T02:32:27;11.65;;;5.03;;
75423;SDS011;64005;55.160;36.002;2023-02-01T02:35:13;12.68;;;4.90;;
75423;SDS011;64005;55.160;36.002;2023-02-01T02:37:49;16.27;;;4.82;;
75423;SDS011;64005;55.160;36.002;2023-02-01T02:40:21;12.27;;;5.13;;
75423;SDS011;64005;55.160;36.002;2023-02-01T02:42:59;13.90;;;4.80;;
75423;SDS011;64005;55.160;36.002;2023-02-01T02:45:49;15.93;;;5.25;;
75423;SDS011;64005;55.160;36.002;2023-02-01T02:48:42;14.23;;;5.03;;
75423;SDS011;64005;55.160;36.002;2023-02-01T02:51:19;17.17;;;5.28;;
75423;SDS011;64005;55.160;36.002;2023-02-01T02:54:10;15.30;;;5.20;;
75423;SDS011;64005;55.160;36.002;2023-02-01T02:56:58;14.65;;;5.20;;
75423;SDS011;64005;55.160;36.002;2023-02-01T02:59:47;16.88;;;5.88;;
75423;SDS011;64005;55.160;36.002;2023-02-01T03:02:32;15.32;;;5.53;;
75423;SDS011;64005;55.160;36.002;2023-02-01T03:05:19;14.75;;;5.75;;
75423;SDS011;64005;55.160;36.002;2023-02-01T03:07:53;20.42;;;6.60;;
75423;SDS011;64005;55.160;36.002;2023-02-01T03:10:31;14.85;;;6.03;;
75423;SDS011;64005;55.160;36.002;2023-02-01T03:13:06;12.45;;;5.15;;
75423;SDS011;64005;55.160;36.002;2023-02-01T03:15:37;13.98;;;5.65;;
75423;SDS011;64005;55.160;36.002;2023-02-01T03:18:11;17.98;;;5.20;;
75423;SDS011;64005;55.160;36.002;2023-02-01T03:20:44;16.20;;;5.28;;
75423;SDS011;64005;55.160;36.002;2023-02-01T03:23:17;19.95;;;6.80;;
75423;SDS011;64005;55.160;36.002;2023-02-01T03:25:49;19.90;;;5.90;;
75423;SDS011;64005;55.160;36.002;2023-02-01T03:28:19;21.88;;;6.55;;
75423;SDS011;64005;55.160;36.002;2023-02-01T03:30:52;20.17;;;6.15;;
75423;SDS011;64005;55.160;36.002;2023-02-01T03:33:21;19.30;;;6.75;;
75423;SDS011;64005;55.160;36.002;2023-02-01T03:35:55;18.38;;;5.85;;
75423;SDS011;64005;55.160;36.002;2023-02-01T03:38:30;18.00;;;5.47;;
75423;SDS011;64005;55.160;36.002;2023-02-01T03:41:03;18.77;;;6.55;;
75423;SDS011;64005;55.160;36.002;2023-02-01T03:43:46;14.63;;;6.03;;
75423;SDS011;64005;55.160;36.002;2023-02-01T03:46:22;19.83;;;6.28;;
75423;SDS011;64005;55.160;36.002;2023-02-01T03:48:59;19.25;;;6.32;;
75423;SDS011;64005;55.160;36.002;2023-02-01T03:51:30;20.38;;;6.85;;
75423;SDS011;64005;55.160;36.002;2023-02-01T03:54:00;15.68;;;5.32;;
75423;SDS011;64005;55.160;36.002;2023-02-01T03:56:30;17.13;;;5.68;;
75423;SDS011;64005;55.160;36.002;2023-02-01T03:59:01;18.80;;;6.38;;
75423;SDS011;64005;55.160;36.002;2023-02-01T04:01:29;18.85;;;7.03;;
75423;SDS011;64005;55.160;36.002;2023-02-01T04:03:58;23.33;;;6.97;;
75423;SDS011;64005;55.160;36.002;2023-02-01T04:06:25;18.70;;;5.53;;
75423;SDS011;64005;55.160;36.002;2023-02-01T04:08:53;19.67;;;6.60;;
75423;SDS011;64005;55.160;36.002;2023-02-01T04:11:22;17.58;;;5.53;;
75423;SDS011;64005;55.160;36.002;2023-02-01T04:13:49;18.98;;;6.65;;
75423;SDS011;64005;55.160;36.002;2023-02-01T04:16:17;18.83;;;5.82;;
75423;SDS011;64005;55.160;36.002;2023-02-01T04:18:44;17.13;;;6.10;;
75423;SDS011;64005;55.160;36.002;2023-02-01T04:21:12;21.50;;;6.57;;
75423;SDS011;64005;55.160;36.002;2023-02-01T04:23:39;20.35;;;6.30;;
75423;SDS011;64005;55.160;36.002;2023-02-01T04:26:06;20.25;;;6.32;;
75423;SDS011;64005;55.160;36.002;2023-02-01T04:28:35;24.67;;;6.85;;
75423;SDS011;64005;55.160;36.002;2023-02-01T04:31:03;22.02;;;6.78;;
75423;SDS011;64005;55.160;36.002;2023-02-01T04:33:31;19.73;;;7.05;;
75423;SDS011;64005;55.160;36.002;2023-02-01T04:35:59;22.70;;;7.30;;
75423;SDS011;64005;55.160;36.002;2023-02-01T04:38:26;16.48;;;5.93;;
75423;SDS011;64005;55.160;36.002;2023-02-01T04:40:54;21.40;;;5.82;;
75423;SDS011;64005;55.160;36.002;2023-02-01T04:43:22;21.20;;;6.55;;
75423;SDS011;64005;55.160;36.002;2023-02-01T04:45:51;23.65;;;6.25;;
75423;SDS011;64005;55.160;36.002;2023-02-01T04:48:19;22.55;;;6.40;;
75423;SDS011;64005;55.160;36.002;2023-02-01T04:50:48;18.90;;;6.43;;
75423;SDS011;64005;55.160;36.002;2023-02-01T04:53:15;24.08;;;6.50;;
75423;SDS011;64005;55.160;36.002;2023-02-01T04:55:43;23.50;;;7.60;;
75423;SDS011;64005;55.160;36.002;2023-02-01T04:58:11;20.08;;;6.63;;
75423;SDS011;64005;55.160;36.002;2023-02-01T05:00:38;25.25;;;6.70;;
75423;SDS011;64005;55.160;36.002;2023-02-01T05:03:07;21.38;;;7.45;;
75423;SDS011;64005;55.160;36.002;2023-02-01T05:05:35;23.25;;;7.53;;
75423;SDS011;64005;55.160;36.002;2023-02-01T05:08:03;23.45;;;7.32;;
75423;SDS011;64005;55.160;36.002;2023-02-01T05:10:30;29.77;;;7.80;;
75423;SDS011;64005;55.160;36.002;2023-02-01T05:12:58;21.27;;;7.30;;
75423;SDS011;64005;55.160;36.002;2023-02-01T05:15:42;23.52;;;6.97;;
75423;SDS011;64005;55.160;36.002;2023-02-01T05:18:12;25.77;;;8.15;;
75423;SDS011;64005;55.160;36.002;2023-02-01T05:20:40;25.92;;;8.02;;
75423;SDS011;64005;55.160;36.002;2023-02-01T05:23:07;22.20;;;6.68;;
75423;SDS011;64005;55.160;36.002;2023-02-01T05:25:35;26.70;;;7.07;;
75423;SDS011;64005;55.160;36.002;2023-02-01T05:28:02;23.85;;;6.95;;
75423;SDS011;64005;55.160;36.002;2023-02-01T05:30:32;28.20;;;9.95;;
75423;SDS011;64005;55.160;36.002;2023-02-01T05:33:01;16.33;;;5.25;;
75423;SDS011;64005;55.160;36.002;2023-02-01T05:35:30;19.98;;;6.38;;
75423;SDS011;64005;55.160;36.002;2023-02-01T05:37:58;20.92;;;7.40;;
75423;SDS011;64005;55.160;36.002;2023-02-01T05:40:25;27.85;;;7.43;;
75423;SDS011;64005;55.160;36.002;2023-02-01T05:42:53;26.50;;;7.45;;
75423;SDS011;64005;55.160;36.002;2023-02-01T05:45:20;21.35;;;6.88;;
75423;SDS011;64005;55.160;36.002;2023-02-01T05:47:47;22.52;;;7.10;;
75423;SDS011;64005;55.160;36.002;2023-02-01T05:50:15;25.60;;;8.68;;
75423;SDS011;64005;55.160;36.002;2023-02-01T05:52:44;26.27;;;7.72;;
75423;SDS011;64005;55.160;36.002;2023-02-01T05:55:12;32.17;;;7.82;;
75423;SDS011;64005;55.160;36.002;2023-02-01T05:57:39;29.27;;;8.38;;
75423;SDS011;64005;55.160;36.002;2023-02-01T06:00:07;29.35;;;9.07;;
75423;SDS011;64005;55.160;36.002;2023-02-01T06:02:36;31.42;;;9.45;;
75423;SDS011;64005;55.160;36.002;2023-02-01T06:05:04;26.13;;;9.00;;
75423;SDS011;64005;55.160;36.002;2023-02-01T06:07:32;30.75;;;8.73;;
75423;SDS011;64005;55.160;36.002;2023-02-01T06:10:01;29.00;;;10.82;;
75423;SDS011;64005;55.160;36.002;2023-02-01T06:12:28;35.00;;;9.57;;
75423;SDS011;64005;55.160;36.002;2023-02-01T06:14:56;31.05;;;8.23;;
75423;SDS011;64005;55.160;36.002;2023-02-01T06:17:24;32.60;;;9.45;;
75423;SDS011;64005;55.160;36.002;2023-02-01T06:19:51;24.65;;;7.90;;
75423;SDS011;64005;55.160;36.002;2023-02-01T06:22:19;20.08;;;6.47;;
75423;SDS011;64005;55.160;36.002;2023-02-01T06:24:47;32.08;;;8.40;;
75423;SDS011;64005;55.160;36.002;2023-02-01T06:27:15;27.88;;;9.23;;
75423;SDS011;64005;55.160;36.002;2023-02-01T06:29:43;29.60;;;8.05;;
75423;SDS011;64005;55.160;36.002;2023-02-01T06:32:10;30.90;;;9.23;;
75423;SDS011;64005;55.160;36.002;2023-02-01T06:34:38;28.60;;;9.07;;
75423;SDS011;64005;55.160;36.002;2023-02-01T06:37:05;33.55;;;8.80;;
75423;SDS011;64005;55.160;36.002;2023-02-01T06:39:33;32.38;;;9.05;;
75423;SDS011;64005;55.160;36.002;2023-02-01T06:42:01;32.60;;;9.43;;
75423;SDS011;64005;55.160;36.002;2023-02-01T06:44:29;31.73;;;8.85;;
75423;SDS011;64005;55.160;36.002;2023-02-01T06:46:57;36.90;;;9.82;;
75423;SDS011;64005;55.160;36.002;2023-02-01T06:49:25;30.90;;;9.52;;
75423;SDS011;64005;55.160;36.002;2023-02-01T06:51:52;34.65;;;9.63;;
75423;SDS011;64005;55.160;36.002;2023-02-01T06:54:19;26.17;;;8.05;;
75423;SDS011;64005;55.160;36.002;2023-02-01T06:56:47;27.55;;;8.32;;
75423;SDS011;64005;55.160;36.002;2023-02-01T06:59:14;30.45;;;9.15;;
75423;SDS011;64005;55.160;36.002;2023-02-01T07:01:43;25.85;;;8.50;;
75423;SDS011;64005;55.160;36.002;2023-02-01T07:04:11;25.17;;;8.60;;
75423;SDS011;64005;55.160;36.002;2023-02-01T07:06:39;27.83;;;9.02;;
75423;SDS011;64005;55.160;36.002;2023-02-01T07:09:07;33.40;;;9.88;;
75423;SDS011;64005;55.160;36.002;2023-02-01T07:11:35;34.40;;;11.23;;
75423;SDS011;64005;55.160;36.002;2023-02-01T07:16:33;33.33;;;9.65;;
75423;SDS011;64005;55.160;36.002;2023-02-01T07:19:02;27.77;;;8.45;;
75423;SDS011;64005;55.160;36.002;2023-02-01T07:21:29;20.45;;;7.47;;
75423;SDS011;64005;55.160;36.002;2023-02-01T07:23:58;23.52;;;6.95;;
75423;SDS011;64005;55.160;36.002;2023-02-01T07:26:26;30.42;;;8.40;;
75423;SDS011;64005;55.160;36.002;2023-02-01T07:28:53;31.05;;;9.32;;
75423;SDS011;64005;55.160;36.002;2023-02-01T07:31:21;28.05;;;8.73;;
75423;SDS011;64005;55.160;36.002;2023-02-01T07:33:48;28.55;;;8.63;;
75423;SDS011;64005;55.160;36.002;2023-02-01T07:36:19;15.05;;;5.95;;
75423;SDS011;64005;55.160;36.002;2023-02-01T07:38:47;22.60;;;7.07;;
75423;SDS011;64005;55.160;36.002;2023-02-01T07:41:14;22.55;;;6.70;;
75423;SDS011;64005;55.160;36.002;2023-02-01T07:43:44;24.50;;;7.18;;
75423;SDS011;64005;55.160;36.002;2023-02-01T07:46:12;25.17;;;7.85;;
75423;SDS011;64005;55.160;36.002;2023-02-01T07:48:40;20.77;;;6.97;;
75423;SDS011;64005;55.160;36.002;2023-02-01T07:51:08;20.50;;;7.68;;
75423;SDS011;64005;55.160;36.002;2023-02-01T07:53:39;20.63;;;6.32;;
75423;SDS011;64005;55.160;36.002;2023-02-01T07:56:10;20.35;;;7.45;;
75423;SDS011;64005;55.160;36.002;2023-02-01T07:58:38;24.20;;;7.53;;
75423;SDS011;64005;55.160;36.002;2023-02-01T08:01:10;22.33;;;7.07;;
75423;SDS011;64005;55.160;36.002;2023-02-01T08:03:47;20.50;;;7.15;;
75423;SDS011;64005;55.160;36.002;2023-02-01T08:06:15;21.40;;;7.07;;
75423;SDS011;64005;55.160;36.002;2023-02-01T08:08:46;6.07;;;2.20;;
75423;SDS011;64005;55.160;36.002;2023-02-01T08:11:14;20.73;;;7.82;;
75423;SDS011;64005;55.160;36.002;2023-02-01T08:13:42;21.52;;;7.78;;
75423;SDS011;64005;55.160;36.002;2023-02-01T08:16:10;16.73;;;4.65;;
75423;SDS011;64005;55.160;36.002;2023-02-01T08:21:09;23.30;;;6.85;;
75423;SDS011;64005;55.160;36.002;2023-02-01T08:23:38;17.73;;;6.85;;
75423;SDS011;64005;55.160;36.002;2023-02-01T08:26:09;17.05;;;6.45;;
75423;SDS011;64005;55.160;36.002;2023-02-01T08:28:40;24.13;;;8.05;;
75423;SDS011;64005;55.160;36.002;2023-02-01T08:31:11;23.80;;;7.65;;
75423;SDS011;64005;55.160;36.002;2023-02-01T08:33:41;23.52;;;7.05;;
75423;SDS011;64005;55.160;36.002;2023-02-01T08:36:10;24.65;;;7.82;;
75423;SDS011;64005;55.160;36.002;2023-02-01T08:38:38;22.20;;;7.68;;
75423;SDS011;64005;55.160;36.002;2023-02-01T08:41:07;20.65;;;7.28;;
75423;SDS011;64005;55.160;36.002;2023-02-01T08:46:15;22.20;;;7.53;;
75423;SDS011;64005;55.160;36.002;2023-02-01T08:48:45;18.00;;;6.82;;
75423;SDS011;64005;55.160;36.002;2023-02-01T08:51:14;17.80;;;7.40;;
75423;SDS011;64005;55.160;36.002;2023-02-01T08:53:43;21.50;;;7.63;;
75423;SDS011;64005;55.160;36.002;2023-02-01T08:56:13;22.40;;;8.05;;
75423;SDS011;64005;55.160;36.002;2023-02-01T08:58:42;20.63;;;7.20;;
75423;SDS011;64005;55.160;36.002;2023-02-01T09:01:10;18.30;;;6.72;;
75423;SDS011;64005;55.160;36.002;2023-02-01T09:03:40;19.80;;;7.35;;
75423;SDS011;64005;55.160;36.002;2023-02-01T09:06:09;20.60;;;7.00;;
75423;SDS011;64005;55.160;36.002;2023-02-01T09:08:38;19.55;;;7.13;;
75423;SDS011;64005;55.160;36.002;2023-02-01T09:11:07;26.92;;;8.10;;
75423;SDS011;64005;55.160;36.002;2023-02-01T09:13:38;17.40;;;6.25;;
75423;SDS011;64005;55.160;36.002;2023-02-01T09:16:06;15.35;;;6.82;;
75423;SDS011;64005;55.160;36.002;2023-02-01T09:18:33;22.63;;;6.75;;
75423;SDS011;64005;55.160;36.002;2023-02-01T09:21:03;20.55;;;6.43;;
75423;SDS011;64005;55.160;36.002;2023-02-01T09:23:31;19.52;;;6.75;;
75423;SDS011;64005;55.160;36.002;2023-02-01T09:25:59;17.50;;;7.00;;
75423;SDS011;64005;55.160;36.002;2023-02-01T09:28:26;21.67;;;7.40;;
75423;SDS011;64005;55.160;36.002;2023-02-01T09:30:56;20.90;;;6.95;;
75423;SDS011;64005;55.160;36.002;2023-02-01T09:33:24;18.30;;;6.45;;
75423;SDS011;64005;55.160;36.002;2023-02-01T09:35:55;18.50;;;7.63;;
75423;SDS011;64005;55.160;36.002;2023-02-01T09:38:23;19.52;;;6.68;;
75423;SDS011;64005;55.160;36.002;2023-02-01T09:40:52;16.45;;;6.57;;
75423;SDS011;64005;55.160;36.002;2023-02-01T09:43:24;15.60;;;5.90;;
75423;SDS011;64005;55.160;36.002;2023-02-01T09:46:19;17.92;;;6.43;;
75423;SDS011;64005;55.160;36.002;2023-02-01T09:48:52;16.85;;;5.55;;
75423;SDS011;64005;55.160;36.002;2023-02-01T09:51:23;15.65;;;4.72;;
75423;SDS011;64005;55.160;36.002;2023-02-01T09:53:55;15.25;;;5.80;;
75423;SDS011;64005;55.160;36.002;2023-02-01T09:56:30;16.63;;;5.93;;
75423;SDS011;64005;55.160;36.002;2023-02-01T09:59:04;21.30;;;7.25;;
75423;SDS011;64005;55.160;36.002;2023-02-01T10:01:47;20.13;;;6.90;;
75423;SDS011;64005;55.160;36.002;2023-02-01T10:04:15;18.48;;;6.63;;
75423;SDS011;64005;55.160;36.002;2023-02-01T10:06:47;17.65;;;6.63;;
75423;SDS011;64005;55.160;36.002;2023-02-01T10:12:38;15.80;;;7.13;;
75423;SDS011;64005;55.160;36.002;2023-02-01T10:15:37;17.55;;;7.03;;
75423;SDS011;64005;55.160;36.002;2023-02-01T10:18:27;15.23;;;5.93;;
75423;SDS011;64005;55.160;36.002;2023-02-01T10:21:07;18.30;;;7.00;;
75423;SDS011;64005;55.160;36.002;2023-02-01T10:23:48;19.40;;;5.78;;
75423;SDS011;64005;55.160;36.002;2023-02-01T10:26:30;18.40;;;6.28;;
75423;SDS011;64005;55.160;36.002;2023-02-01T10:29:02;16.45;;;6.18;;
75423;SDS011;64005;55.160;36.002;2023-02-01T10:31:31;14.80;;;6.13;;
75423;SDS011;64005;55.160;36.002;2023-02-01T10:34:07;15.10;;;5.38;;
75423;SDS011;64005;55.160;36.002;2023-02-01T10:36:49;13.65;;;5.28;;
75423;SDS011;64005;55.160;36.002;2023-02-01T10:39:21;14.20;;;5.40;;
75423;SDS011;64005;55.160;36.002;2023-02-01T10:41:49;15.65;;;6.13;;
75423;SDS011;64005;55.160;36.002;2023-02-01T10:44:18;19.25;;;6.72;;
75423;SDS011;64005;55.160;36.002;2023-02-01T10:46:49;16.10;;;7.25;;
75423;SDS011;64005;55.160;36.002;2023-02-01T10:49:20;13.32;;;5.82;;
75423;SDS011;64005;55.160;36.002;2023-02-01T10:51:54;15.23;;;5.97;;
75423;SDS011;64005;55.160;36.002;2023-02-01T10:54:34;17.38;;;5.40;;
75423;SDS011;64005;55.160;36.002;2023-02-01T10:57:06;13.50;;;5.45;;
75423;SDS011;64005;55.160;36.002;2023-02-01T10:59:35;17.13;;;6.68;;
75423;SDS011;64005;55.160;36.002;2023-02-01T11:02:12;13.23;;;5.32;;
75423;SDS011;64005;55.160;36.002;2023-02-01T11:04:46;12.65;;;4.88;;
75423;SDS011;64005;55.160;36.002;2023-02-01T11:07:16;12.93;;;5.85;;
75423;SDS011;64005;55.160;36.002;2023-02-01T11:09:48;15.13;;;6.25;;
75423;SDS011;64005;55.160;36.002;2023-02-01T11:12:22;15.40;;;6.38;;
75423;SDS011;64005;55.160;36.002;2023-02-01T11:15:12;14.55;;;5.50;;
75423;SDS011;64005;55.160;36.002;2023-02-01T11:17:42;15.55;;;6.93;;
75423;SDS011;64005;55.160;36.002;2023-02-01T11:20:16;9.23;;;4.05;;
75423;SDS011;64005;55.160;36.002;2023-02-01T11:22:46;19.08;;;5.68;;
75423;SDS011;64005;55.160;36.002;2023-02-01T11:25:14;17.48;;;6.30;;
75423;SDS011;64005;55.160;36.002;2023-02-01T11:27:44;17.20;;;5.93;;
75423;SDS011;64005;55.160;36.002;2023-02-01T11:30:15;16.23;;;6.10;;
75423;SDS011;64005;55.160;36.002;2023-02-01T11:32:44;14.50;;;5.72;;
75423;SDS011;64005;55.160;36.002;2023-02-01T11:35:16;16.08;;;5.03;;
75423;SDS011;64005;55.160;36.002;2023-02-01T11:37:48;16.30;;;5.07;;
75423;SDS011;64005;55.160;36.002;2023-02-01T11:40:26;14.68;;;5.38;;
75423;SDS011;64005;55.160;36.002;2023-02-01T11:42:57;14.82;;;5.75;;
75423;SDS011;64005;55.160;36.002;2023-02-01T11:45:26;16.02;;;5.72;;
75423;SDS011;64005;55.160;36.002;2023-02-01T11:47:55;14.20;;;4.95;;
75423;SDS011;64005;55.160;36.002;2023-02-01T11:50:29;19.95;;;6.80;;
75423;SDS011;64005;55.160;36.002;2023-02-01T11:53:09;18.63;;;6.20;;
75423;SDS011;64005;55.160;36.002;2023-02-01T11:55:50;17.83;;;5.65;;
75423;SDS011;64005;55.160;36.002;2023-02-01T11:58:49;15.90;;;6.50;;
75423;SDS011;64005;55.160;36.002;2023-02-01T12:01:51;9.18;;;4.03;;
75423;SDS011;64005;55.160;36.002;2023-02-01T12:04:44;13.43;;;5.55;;
75423;SDS011;64005;55.160;36.002;2023-02-01T12:07:26;14.07;;;5.95;;
75423;SDS011;64005;55.160;36.002;2023-02-01T12:10:06;16.67;;;6.18;;
75423;SDS011;64005;55.160;36.002;2023-02-01T12:12:49;19.83;;;7.78;;
75423;SDS011;64005;55.160;36.002;2023-02-01T12:15:32;22.33;;;7.40;;
75423;SDS011;64005;55.160;36.002;2023-02-01T12:27:38;13.18;;;6.28;;
75423;SDS011;64005;55.160;36.002;2023-02-01T12:30:21;17.77;;;5.95;;
75423;SDS011;64005;55.160;36.002;2023-02-01T12:33:07;13.30;;;5.47;;
75423;SDS011;64005;55.160;36.002;2023-02-01T12:35:47;21.67;;;6.90;;
75423;SDS011;64005;55.160;36.002;2023-02-01T12:38:30;15.82;;;6.53;;
75423;SDS011;64005;55.160;36.002;2023-02-01T12:41:27;18.13;;;7.15;;
75423;SDS011;64005;55.160;36.002;2023-02-01T12:44:08;17.80;;;6.40;;
75423;SDS011;64005;55.160;36.002;2023-02-01T12:46:43;18.52;;;6.63;;
75423;SDS011;64005;55.160;36.002;2023-02-01T12:49:14;19.88;;;6.88;;
75423;SDS011;64005;55.160;36.002;2023-02-01T12:51:52;18.67;;;6.53;;
75423;SDS011;64005;55.160;36.002;2023-02-01T12:54:34;19.80;;;7.22;;
75423;SDS011;64005;55.160;36.002;2023-02-01T12:57:05;20.63;;;6.75;;
75423;SDS011;64005;55.160;36.002;2023-02-01T12:59:42;21.08;;;7.43;;
75423;SDS011;64005;55.160;36.002;2023-02-01T13:02:15;12.30;;;5.68;;
75423;SDS011;64005;55.160;36.002;2023-02-01T13:04:55;16.63;;;6.60;;
75423;SDS011;64005;55.160;36.002;2023-02-01T13:07:30;20.85;;;6.00;;
75423;SDS011;64005;55.160;36.002;2023-02-01T13:10:07;22.38;;;6.57;;
75423;SDS011;64005;55.160;36.002;2023-02-01T13:12:44;18.30;;;6.80;;
75423;SDS011;64005;55.160;36.002;2023-02-01T13:15:19;22.65;;;6.65;;
75423;SDS011;64005;55.160;36.002;2023-02-01T13:17:51;18.67;;;7.25;;
75423;SDS011;64005;55.160;36.002;2023-02-01T13:20:23;21.83;;;6.88;;
75423;SDS011;64005;55.160;36.002;2023-02-01T13:22:57;12.23;;;5.57;;
75423;SDS011;64005;55.160;36.002;2023-02-01T13:25:30;11.70;;;4.68;;
75423;SDS011;64005;55.160;36.002;2023-02-01T13:28:05;19.75;;;6.60;;
75423;SDS011;64005;55.160;36.002;2023-02-01T13:30:55;20.13;;;7.28;;
75423;SDS011;64005;55.160;36.002;2023-02-01T13:33:38;25.00;;;6.82;;
75423;SDS011;64005;55.160;36.002;2023-02-01T13:39:23;18.50;;;6.13;;
75423;SDS011;64005;55.160;36.002;2023-02-01T13:42:18;22.48;;;7.45;;
75423;SDS011;64005;55.160;36.002;2023-02-01T13:44:48;20.05;;;7.25;;
75423;SDS011;64005;55.160;36.002;2023-02-01T13:47:23;21.70;;;7.35;;
75423;SDS011;64005;55.160;36.002;2023-02-01T13:49:55;22.30;;;7.57;;
75423;SDS011;64005;55.160;36.002;2023-02-01T13:57:32;17.88;;;6.82;;
75423;SDS011;64005;55.160;36.002;2023-02-01T14:00:08;21.98;;;7.55;;
75423;SDS011;64005;55.160;36.002;2023-02-01T14:03:01;20.52;;;6.43;;
75423;SDS011;64005;55.160;36.002;2023-02-01T14:08:39;17.05;;;6.97;;
75423;SDS011;64005;55.160;36.002;2023-02-01T14:23:30;18.38;;;5.18;;
75423;SDS011;64005;55.160;36.002;2023-02-01T14:26:11;17.75;;;5.78;;
75423;SDS011;64005;55.160;36.002;2023-02-01T14:28:52;20.10;;;5.97;;
75423;SDS011;64005;55.160;36.002;2023-02-01T14:31:37;12.38;;;4.78;;
75423;SDS011;64005;55.160;36.002;2023-02-01T14:34:13;19.65;;;7.28;;
75423;SDS011;64005;55.160;36.002;2023-02-01T14:36:45;20.90;;;6.13;;
75423;SDS011;64005;55.160;36.002;2023-02-01T14:39:26;14.73;;;6.10;;
75423;SDS011;64005;55.160;36.002;2023-02-01T14:42:14;16.05;;;5.15;;
75423;SDS011;64005;55.160;36.002;2023-02-01T14:44:48;16.65;;;6.22;;
75423;SDS011;64005;55.160;36.002;2023-02-01T14:47:27;19.35;;;5.82;;
75423;SDS011;64005;55.160;36.002;2023-02-01T14:53:11;21.05;;;6.38;;
75423;SDS011;64005;55.160;36.002;2023-02-01T14:55:46;15.02;;;5.60;;
75423;SDS011;64005;55.160;36.002;2023-02-01T14:58:19;17.42;;;5.30;;
75423;SDS011;64005;55.160;36.002;2023-02-01T15:00:56;19.85;;;5.72;;
75423;SDS011;64005;55.160;36.002;2023-02-01T15:03:35;19.17;;;5.95;;
75423;SDS011;64005;55.160;36.002;2023-02-01T15:06:18;19.42;;;6.28;;
75423;SDS011;64005;55.160;36.002;2023-02-01T15:08:52;19.27;;;5.90;;
75423;SDS011;64005;55.160;36.002;2023-02-01T15:11:24;20.35;;;6.82;;
75423;SDS011;64005;55.160;36.002;2023-02-01T15:13:52;17.92;;;5.72;;
75423;SDS011;64005;55.160;36.002;2023-02-01T15:16:22;21.45;;;6.55;;
75423;SDS011;64005;55.160;36.002;2023-02-01T15:19:06;22.30;;;6.45;;
75423;SDS011;64005;55.160;36.002;2023-02-01T15:21:42;17.98;;;6.07;;
75423;SDS011;64005;55.160;36.002;2023-02-01T15:24:14;16.70;;;5.00;;
75423;SDS011;64005;55.160;36.002;2023-02-01T15:26:48;19.27;;;6.15;;
75423;SDS011;64005;55.160;36.002;2023-02-01T15:29:23;20.55;;;6.25;;
75423;SDS011;64005;55.160;36.002;2023-02-01T15:34:20;15.18;;;5.22;;
75423;SDS011;64005;55.160;36.002;2023-02-01T15:36:49;22.30;;;7.20;;
75423;SDS011;64005;55.160;36.002;2023-02-01T15:39:18;18.60;;;6.28;;
75423;SDS011;64005;55.160;36.002;2023-02-01T15:44:19;15.93;;;5.65;;
75423;SDS011;64005;55.160;36.002;2023-02-01T15:47:05;15.38;;;5.80;;
75423;SDS011;64005;55.160;36.002;2023-02-01T15:49:36;16.38;;;6.22;;
75423;SDS011;64005;55.160;36.002;2023-02-01T15:52:11;19.48;;;6.10;;